createdAt,value
2022-08-03T00:01:40.128Z,17.10
2022-08-03T00:04:07.073Z,17.50
2022-08-03T00:06:37.160Z,17.50
2022-08-03T00:09:05.020Z,17.40
2022-08-03T00:11:31.576Z,18.60
2022-08-03T00:13:58.154Z,20.00
2022-08-03T00:16:26.283Z,19.80
2022-08-03T00:18:52.895Z,20.50
2022-08-03T00:21:19.504Z,22.00
2022-08-03T00:23:52.388Z,21.30
2022-08-03T00:26:22.668Z,21.90
2022-08-03T00:28:49.702Z,21.10
2022-08-03T00:31:16.300Z,20.60
2022-08-03T00:33:59.289Z,20.70
2022-08-03T00:36:26.908Z,21.70
2022-08-03T00:38:53.479Z,23.00
2022-08-03T00:41:20.079Z,23.50
2022-08-03T00:43:47.455Z,23.70
2022-08-03T00:46:19.040Z,23.10
2022-08-03T00:48:48.959Z,25.10
2022-08-03T00:51:15.670Z,24.80
2022-08-03T00:53:42.590Z,25.50
2022-08-03T00:56:09.210Z,26.20
2022-08-03T00:58:35.905Z,26.20
2022-08-03T01:01:04.562Z,26.20
2022-08-03T01:03:31.228Z,27.20
2022-08-03T01:06:07.423Z,26.40
2022-08-03T01:08:42.705Z,26.60
2022-08-03T01:11:17.585Z,28.60
2022-08-03T01:14:03.888Z,28.50
2022-08-03T01:16:40.544Z,29.70
2022-08-03T01:19:16.629Z,28.50
2022-08-03T01:21:59.677Z,27.50
2022-08-03T01:24:29.493Z,28.00
2022-08-03T01:27:15.816Z,28.00
2022-08-03T01:30:01.387Z,28.50
2022-08-03T01:33:02.911Z,29.20
2022-08-03T01:35:17.222Z,27.90
2022-08-03T01:37:47.701Z,27.30
2022-08-03T01:40:15.414Z,29.20
2022-08-03T01:42:42.874Z,29.10
2022-08-03T01:45:10.787Z,29.00
2022-08-03T01:47:38.282Z,28.70
2022-08-03T01:50:05.745Z,28.40
2022-08-03T01:52:32.829Z,29.30
2022-08-03T01:55:00.212Z,30.20
2022-08-03T01:57:28.335Z,31.50
2022-08-03T01:59:55.870Z,30.90
2022-08-03T02:02:33.532Z,30.10
2022-08-03T02:05:01.353Z,32.40
2022-08-03T02:07:28.997Z,33.00
2022-08-03T02:09:57.119Z,30.00
2022-08-03T02:12:24.762Z,30.00
2022-08-03T02:14:51.712Z,31.70
2022-08-03T02:17:18.889Z,32.70
2022-08-03T02:20:06.163Z,32.30
2022-08-03T02:22:33.473Z,31.30
2022-08-03T02:25:00.116Z,31.70
2022-08-03T02:27:27.361Z,32.30
2022-08-03T02:30:01.211Z,33.00
2022-08-03T02:32:32.654Z,33.60
2022-08-03T02:35:00.507Z,33.60
2022-08-03T02:37:28.818Z,35.60
2022-08-03T02:40:01.275Z,35.60
2022-08-03T02:42:29.469Z,35.50
2022-08-03T02:44:57.527Z,35.50
2022-08-03T02:47:25.211Z,35.40
2022-08-03T02:49:53.888Z,35.50
2022-08-03T02:52:20.994Z,35.40
2022-08-03T02:54:48.712Z,35.40
2022-08-03T02:57:16.205Z,35.40
2022-08-03T02:59:43.778Z,39.00
2022-08-03T03:02:11.127Z,38.80
2022-08-03T03:04:38.987Z,39.10
2022-08-03T03:07:26.573Z,38.00
2022-08-03T03:09:55.577Z,37.80
2022-08-03T03:12:22.487Z,38.10
2022-08-03T03:14:49.099Z,38.50
2022-08-03T03:17:17.738Z,39.40
2022-08-03T03:19:45.432Z,39.60
2022-08-03T03:22:12.793Z,40.30
2022-08-03T03:24:39.755Z,41.00
2022-08-03T03:27:06.454Z,39.70
2022-08-03T03:29:39.469Z,38.90
2022-08-03T03:32:08.274Z,38.50
2022-08-03T03:34:36.274Z,39.70
2022-08-03T03:37:03.181Z,39.20
2022-08-03T03:39:31.760Z,38.10
2022-08-03T03:41:58.499Z,38.10
2022-08-03T03:44:31.032Z,37.40
2022-08-03T03:46:57.890Z,37.30
2022-08-03T03:49:24.685Z,37.80
2022-08-03T03:51:55.036Z,38.80
2022-08-03T03:54:21.613Z,39.50
2022-08-03T03:56:48.223Z,38.40
2022-08-03T03:59:15.010Z,38.80
2022-08-03T04:01:41.827Z,38.00
2022-08-03T04:04:27.014Z,38.10
2022-08-03T04:07:12.258Z,39.50
2022-08-03T04:09:59.204Z,40.30
2022-08-03T04:12:35.900Z,39.40
2022-08-03T04:15:03.275Z,39.90
2022-08-03T04:17:30.879Z,40.40
2022-08-03T04:19:57.767Z,41.50
2022-08-03T04:22:26.746Z,40.50
2022-08-03T04:25:04.919Z,40.50
2022-08-03T04:27:41.385Z,41.30
2022-08-03T04:30:09.114Z,40.70
2022-08-03T04:32:35.881Z,40.90
2022-08-03T04:35:02.895Z,40.40
2022-08-03T04:37:35.217Z,39.60
2022-08-03T04:40:02.468Z,40.60
2022-08-03T04:42:31.886Z,40.60
2022-08-03T04:45:01.343Z,40.60
2022-08-03T04:47:29.077Z,40.70
2022-08-03T04:49:55.743Z,39.20
2022-08-03T04:52:22.430Z,40.70
2022-08-03T04:54:51.050Z,39.80
2022-08-03T04:57:22.385Z,38.50
2022-08-03T05:00:02.153Z,38.60
2022-08-03T05:02:30.808Z,38.10
2022-08-03T05:04:57.513Z,36.40
2022-08-03T05:07:24.757Z,36.70
2022-08-03T05:09:57.707Z,36.70
2022-08-03T05:12:32.834Z,35.40
2022-08-03T05:15:00.157Z,35.50
2022-08-03T05:17:27.011Z,35.50
2022-08-03T05:19:54.170Z,35.50
2022-08-03T05:22:22.486Z,34.20
2022-08-03T05:24:49.142Z,33.70
2022-08-03T05:27:21.850Z,34.20
2022-08-03T05:29:49.416Z,34.00
2022-08-03T05:32:16.513Z,33.20
2022-08-03T05:34:43.644Z,32.50
2022-08-03T05:37:10.547Z,28.60
2022-08-03T05:39:37.955Z,28.00
2022-08-03T05:42:04.559Z,29.20
2022-08-03T05:44:31.761Z,28.80
2022-08-03T05:46:59.153Z,27.10
2022-08-03T05:49:25.820Z,26.40
2022-08-03T05:52:00.595Z,26.50
2022-08-03T05:54:55.960Z,25.30
2022-08-03T05:57:23.702Z,19.80
2022-08-03T05:59:56.409Z,17.90
2022-08-03T06:02:28.121Z,16.00
2022-08-03T06:04:54.828Z,13.50
2022-08-03T06:07:21.477Z,13.80
2022-08-03T06:10:36.216Z,11.20
2022-08-03T06:12:36.173Z,10.60
2022-08-03T06:15:03.983Z,4.60
2022-08-03T06:17:37.618Z,2.80
2022-08-03T06:20:05.507Z,1.90
2022-08-03T06:22:32.111Z,2.00
2022-08-03T06:24:58.927Z,1.00
2022-08-03T06:27:37.256Z,1.00
2022-08-03T06:30:04.867Z,1.00
2022-08-03T06:32:31.431Z,1.00
2022-08-03T06:34:58.013Z,1.00
2022-08-03T06:37:24.596Z,1.00
2022-08-03T06:39:51.181Z,1.00
2022-08-03T06:42:18.158Z,1.00
2022-08-03T06:44:47.261Z,1.00
2022-08-03T06:47:13.847Z,1.00
2022-08-03T06:49:41.537Z,1.00
2022-08-03T06:52:08.222Z,1.00
2022-08-03T06:54:35.756Z,1.00
2022-08-03T06:57:02.499Z,1.00
2022-08-03T07:00:07.822Z,1.00
2022-08-03T07:02:19.343Z,1.00
2022-08-03T07:04:47.303Z,1.00
2022-08-03T07:07:14.061Z,1.00
2022-08-03T07:09:40.629Z,1.00
2022-08-03T07:12:08.534Z,1.00
2022-08-03T07:14:35.186Z,1.00
2022-08-03T07:17:01.818Z,1.00
2022-08-03T07:19:37.987Z,1.00
2022-08-03T07:22:04.736Z,1.00
2022-08-03T07:24:31.310Z,1.00
2022-08-03T07:26:57.993Z,1.00
2022-08-03T07:29:24.995Z,1.00
2022-08-03T07:31:51.654Z,1.00
2022-08-03T07:34:18.252Z,1.00
2022-08-03T07:36:44.833Z,1.00
2022-08-03T07:39:17.761Z,1.00
2022-08-03T07:41:45.483Z,1.00
2022-08-03T07:44:12.134Z,1.00
2022-08-03T07:46:38.715Z,1.00
2022-08-03T07:49:05.365Z,1.00
2022-08-03T07:51:31.995Z,1.00
2022-08-03T07:53:59.084Z,1.00
2022-08-03T07:56:25.743Z,1.00
2022-08-03T07:58:52.656Z,1.00
2022-08-03T08:01:19.571Z,1.00
2022-08-03T08:03:52.765Z,1.00
2022-08-03T08:06:20.628Z,1.00
2022-08-03T08:08:47.298Z,1.00
2022-08-03T08:11:13.938Z,1.00
2022-08-03T08:13:40.560Z,1.00
2022-08-03T08:16:07.272Z,1.00
2022-08-03T08:18:34.440Z,1.00
2022-08-03T08:21:03.131Z,1.00
2022-08-03T08:23:42.050Z,1.00
2022-08-03T08:26:10.460Z,1.00
2022-08-03T08:28:37.067Z,1.00
2022-08-03T08:31:03.674Z,1.00
2022-08-03T08:33:48.017Z,1.00
2022-08-03T08:36:16.930Z,1.00
2022-08-03T08:38:44.863Z,1.00
2022-08-03T08:41:12.558Z,1.00
2022-08-03T08:43:39.265Z,1.00
2022-08-03T08:46:08.322Z,1.00
2022-08-03T08:48:36.411Z,1.00
2022-08-03T08:51:03.096Z,1.00
2022-08-03T08:53:30.170Z,1.00
2022-08-03T08:56:01.114Z,1.00
2022-08-03T08:58:34.934Z,1.00
2022-08-03T09:01:01.611Z,1.00
2022-08-03T09:03:29.304Z,1.00
2022-08-03T09:05:58.220Z,1.00
2022-08-03T09:08:24.835Z,1.00
2022-08-03T09:10:51.450Z,1.00
2022-08-03T09:13:18.144Z,1.00
2022-08-03T09:15:57.154Z,1.00
2022-08-03T09:18:29.317Z,1.00
2022-08-03T09:21:30.086Z,1.00
2022-08-03T09:24:02.660Z,1.00
2022-08-03T09:26:31.091Z,1.00
2022-08-03T09:29:06.933Z,1.00
2022-08-03T09:31:38.881Z,1.00
2022-08-03T09:34:10.682Z,1.00
2022-08-03T09:37:00.581Z,1.00
2022-08-03T09:39:40.923Z,1.00
2022-08-03T09:42:10.218Z,1.00
2022-08-03T09:44:37.149Z,1.00
2022-08-03T09:47:04.229Z,1.00
2022-08-03T09:49:31.106Z,1.00
2022-08-03T09:52:11.047Z,1.00
2022-08-03T09:54:53.224Z,1.00
2022-08-03T09:57:20.940Z,1.00
2022-08-03T09:59:47.632Z,1.00
2022-08-03T10:02:27.637Z,1.00
2022-08-03T10:04:54.573Z,1.00
2022-08-03T10:07:21.753Z,1.00
2022-08-03T10:09:55.468Z,1.00
2022-08-03T10:12:22.224Z,1.00
2022-08-03T10:14:48.869Z,1.00
2022-08-03T10:17:15.537Z,1.00
2022-08-03T10:19:42.328Z,1.00
2022-08-03T10:22:17.787Z,1.00
2022-08-03T10:24:55.746Z,1.00
2022-08-03T10:27:22.965Z,1.00
2022-08-03T10:29:52.672Z,1.00
2022-08-03T10:32:22.712Z,1.00
2022-08-03T10:34:50.692Z,1.00
2022-08-03T10:37:29.477Z,1.00
2022-08-03T10:39:57.832Z,1.00
2022-08-03T10:42:27.123Z,1.00
2022-08-03T10:45:02.781Z,1.00
2022-08-03T10:47:30.058Z,1.00
2022-08-03T10:49:56.847Z,1.00
2022-08-03T10:52:33.662Z,1.00
2022-08-03T10:55:43.656Z,1.00
2022-08-03T10:58:12.436Z,1.00
2022-08-03T11:00:48.548Z,1.00
2022-08-03T11:03:15.204Z,1.00
2022-08-03T11:05:42.819Z,1.00
2022-08-03T11:08:21.394Z,1.00
2022-08-03T11:10:48.783Z,1.00
2022-08-03T11:13:16.916Z,1.00
2022-08-03T11:15:45.288Z,1.00
2022-08-03T11:18:12.360Z,1.00
2022-08-03T11:20:45.923Z,1.00
2022-08-03T11:23:12.723Z,1.00
2022-08-03T11:25:57.748Z,1.00
2022-08-03T11:28:28.479Z,1.00
2022-08-03T11:30:55.176Z,1.00
2022-08-03T11:33:31.358Z,1.00
2022-08-03T11:35:59.589Z,1.00
2022-08-03T11:38:26.306Z,1.00
2022-08-03T11:40:53.645Z,1.00
2022-08-03T11:43:30.625Z,1.00
2022-08-03T11:45:57.690Z,1.00
2022-08-03T11:48:26.792Z,1.00
2022-08-03T11:50:53.404Z,1.00
2022-08-03T11:53:20.225Z,1.00
2022-08-03T11:55:50.585Z,1.00
2022-08-03T11:59:01.342Z,1.00
2022-08-03T12:01:08.210Z,1.00
2022-08-03T12:03:35.047Z,1.00
2022-08-03T12:06:02.354Z,1.00
2022-08-03T12:08:32.133Z,1.00
2022-08-03T12:11:00.101Z,1.00
2022-08-03T12:14:05.735Z,1.00
2022-08-03T12:16:23.571Z,1.00
2022-08-03T12:18:56.073Z,1.00
2022-08-03T12:21:24.661Z,1.00
2022-08-03T12:23:51.509Z,1.00
2022-08-03T12:26:18.236Z,1.00
2022-08-03T12:28:49.933Z,1.00
2022-08-03T12:31:17.017Z,1.00
2022-08-03T12:33:56.041Z,1.00
2022-08-03T12:36:22.784Z,1.00
2022-08-03T12:39:02.588Z,1.00
2022-08-03T12:41:30.532Z,1.00
2022-08-03T12:43:57.442Z,1.00
2022-08-03T12:46:29.220Z,1.00
2022-08-03T12:49:00.005Z,1.00
2022-08-03T12:51:27.576Z,1.00
2022-08-03T12:53:55.274Z,1.00
2022-08-03T12:56:21.919Z,1.00
2022-08-03T12:58:48.549Z,1.00
2022-08-03T13:01:15.280Z,1.00
2022-08-03T13:03:49.777Z,1.00
2022-08-03T13:06:21.686Z,1.00
2022-08-03T13:08:49.155Z,1.00
2022-08-03T13:11:19.597Z,1.00
2022-08-03T13:13:46.781Z,1.00
2022-08-03T13:16:18.738Z,1.00
2022-08-03T13:18:47.107Z,1.00
2022-08-03T13:21:15.723Z,1.00
2022-08-03T13:23:42.957Z,1.00
2022-08-03T13:26:10.198Z,1.00
2022-08-03T13:28:36.803Z,1.00
2022-08-03T13:31:03.416Z,1.00
2022-08-03T13:33:30.045Z,1.00
2022-08-03T13:35:56.818Z,1.00
2022-08-03T13:38:23.797Z,1.00
2022-08-03T13:40:53.942Z,1.00
2022-08-03T13:43:21.433Z,1.00
2022-08-03T13:45:52.425Z,1.00
2022-08-03T13:48:35.907Z,1.00
2022-08-03T13:51:11.682Z,1.00
2022-08-03T13:53:49.447Z,1.00
2022-08-03T13:56:16.010Z,1.00
2022-08-03T13:58:42.559Z,1.00
2022-08-03T14:01:09.163Z,1.00
2022-08-03T14:03:35.951Z,1.00
2022-08-03T14:06:02.559Z,1.00
2022-08-03T14:08:29.286Z,1.00
2022-08-03T14:10:55.903Z,1.00
2022-08-03T14:13:22.568Z,1.00
2022-08-03T14:15:50.898Z,1.00
2022-08-03T14:18:29.118Z,1.00
2022-08-03T14:21:05.554Z,1.00
2022-08-03T14:23:33.427Z,1.00
2022-08-03T14:26:00.007Z,1.00
2022-08-03T14:28:26.611Z,1.00
2022-08-03T14:30:53.776Z,1.00
2022-08-03T14:33:20.465Z,1.00
2022-08-03T14:35:47.193Z,1.00
2022-08-03T14:38:13.994Z,1.00
2022-08-03T14:40:40.624Z,1.00
2022-08-03T14:43:07.243Z,1.00
2022-08-03T14:45:34.321Z,1.00
2022-08-03T14:50:33.696Z,1.00
2022-08-03T14:50:51.458Z,1.00
2022-08-03T14:53:19.558Z,1.00
2022-08-03T14:55:49.752Z,1.00
2022-08-03T14:58:20.674Z,1.00
2022-08-03T15:00:48.444Z,1.00
2022-08-03T15:03:16.955Z,1.00
2022-08-03T15:05:44.097Z,1.00
2022-08-03T15:08:10.883Z,1.00
2022-08-03T15:10:43.902Z,1.00
2022-08-03T15:13:12.223Z,1.00
2022-08-03T15:15:38.819Z,1.00
2022-08-03T15:18:05.451Z,1.00
2022-08-03T15:20:43.282Z,1.00
2022-08-03T15:23:10.372Z,1.00
2022-08-03T15:26:07.047Z,1.00
2022-08-03T15:28:23.523Z,1.00
2022-08-03T15:30:51.939Z,1.00
2022-08-03T15:33:18.580Z,1.00
2022-08-03T15:35:46.404Z,1.00
2022-08-03T15:38:13.139Z,1.00
2022-08-03T15:40:39.897Z,1.00
2022-08-03T15:43:07.592Z,1.00
2022-08-03T15:45:36.278Z,1.00
2022-08-03T15:48:04.230Z,1.00
2022-08-03T15:50:30.783Z,1.00
2022-08-03T15:52:57.361Z,1.00
2022-08-03T15:55:23.966Z,1.00
2022-08-03T15:59:09.576Z,1.00
2022-08-03T16:00:37.369Z,1.00
2022-08-03T16:03:04.134Z,1.00
2022-08-03T16:05:30.791Z,1.00
2022-08-03T16:08:02.979Z,1.00
2022-08-03T16:10:30.598Z,1.00
2022-08-03T16:12:58.886Z,1.00
2022-08-03T16:15:25.702Z,1.00
2022-08-03T16:17:52.332Z,1.00
2022-08-03T16:20:31.285Z,1.00
2022-08-03T16:23:01.622Z,1.00
2022-08-03T16:25:38.437Z,1.00
2022-08-03T16:28:07.936Z,1.00
2022-08-03T16:30:39.899Z,1.00
2022-08-03T16:33:06.511Z,1.00
2022-08-03T16:35:33.194Z,1.00
2022-08-03T16:37:59.947Z,1.00
2022-08-03T16:40:26.705Z,1.00
2022-08-03T16:42:53.291Z,1.00
2022-08-03T16:45:20.041Z,1.00
2022-08-03T16:47:46.610Z,1.00
2022-08-03T16:50:19.531Z,1.00
2022-08-03T16:52:47.671Z,1.00
2022-08-03T16:55:18.329Z,1.00
2022-08-03T16:58:03.075Z,1.00
2022-08-03T17:00:34.328Z,1.00
2022-08-03T17:03:18.755Z,1.00
2022-08-03T17:05:52.383Z,1.00
2022-08-03T17:08:26.678Z,1.00
2022-08-03T17:10:54.605Z,1.00
2022-08-03T17:13:22.004Z,1.00
2022-08-03T17:16:01.087Z,1.00
2022-08-03T17:18:35.027Z,1.00
2022-08-03T17:21:05.979Z,1.00
2022-08-03T17:23:38.951Z,1.00
2022-08-03T17:26:18.764Z,1.00
2022-08-03T17:28:57.184Z,1.00
2022-08-03T17:31:31.865Z,1.00
2022-08-03T17:34:00.696Z,1.00
2022-08-03T17:36:47.717Z,1.00
2022-08-03T17:39:30.778Z,1.00
2022-08-03T17:42:28.994Z,1.00
2022-08-03T17:44:54.359Z,1.00
2022-08-03T17:47:22.978Z,1.00
2022-08-03T17:49:56.880Z,1.00
2022-08-03T17:52:23.753Z,1.00
2022-08-03T17:55:54.863Z,1.00
2022-08-03T17:58:02.063Z,1.00
2022-08-03T18:00:48.246Z,1.00
2022-08-03T18:03:28.100Z,1.00
2022-08-03T18:06:10.440Z,1.00
2022-08-03T18:08:48.215Z,1.00
2022-08-03T18:11:21.619Z,1.00
2022-08-03T18:14:16.014Z,1.00
2022-08-03T18:16:51.869Z,1.00
2022-08-03T18:19:20.319Z,1.00
2022-08-03T18:22:09.979Z,1.00
2022-08-03T18:24:38.078Z,1.00
2022-08-03T18:27:05.295Z,1.00
2022-08-03T18:29:34.341Z,1.00
2022-08-03T18:32:03.781Z,1.00
2022-08-03T18:34:33.784Z,1.00
2022-08-03T18:37:04.391Z,1.00
2022-08-03T18:39:49.606Z,1.00
2022-08-03T18:42:19.671Z,1.00
2022-08-03T18:44:53.827Z,1.00
2022-08-03T18:47:50.617Z,1.00
2022-08-03T18:50:27.014Z,1.00
2022-08-03T18:53:15.729Z,1.00
2022-08-03T18:55:52.262Z,1.00
2022-08-03T18:58:40.974Z,1.00
2022-08-03T19:01:15.267Z,1.00
2022-08-03T19:04:08.149Z,1.00
2022-08-03T19:06:38.607Z,1.00
2022-08-03T19:09:09.472Z,1.00
2022-08-03T19:12:13.105Z,1.00
2022-08-03T19:14:29.449Z,1.00
2022-08-03T19:17:05.092Z,1.00
2022-08-03T19:19:44.554Z,1.00
2022-08-03T19:22:12.805Z,1.00
2022-08-03T19:24:45.302Z,1.00
2022-08-03T19:27:12.522Z,1.00
2022-08-03T19:29:59.859Z,1.00
2022-08-03T19:32:31.075Z,1.00
2022-08-03T19:34:59.665Z,1.00
2022-08-03T19:37:27.535Z,1.00
2022-08-03T19:40:05.732Z,1.00
2022-08-03T19:42:39.938Z,1.00
2022-08-03T19:45:11.390Z,1.00
2022-08-03T19:47:56.935Z,1.00
2022-08-03T19:50:25.025Z,1.00
2022-08-03T19:52:52.154Z,1.00
2022-08-03T19:55:18.820Z,1.00
2022-08-03T19:57:46.984Z,1.00
2022-08-03T20:00:19.554Z,1.00
2022-08-03T20:02:46.682Z,1.00
2022-08-03T20:05:15.381Z,1.00
2022-08-03T20:07:47.688Z,1.00
2022-08-03T20:10:15.411Z,1.00
2022-08-03T20:12:43.569Z,1.00
2022-08-03T20:15:10.765Z,1.00
2022-08-03T20:17:56.329Z,1.00
2022-08-03T20:20:26.555Z,1.00
2022-08-03T20:22:57.457Z,1.00
2022-08-03T20:25:38.643Z,1.00
2022-08-03T20:28:13.911Z,1.00
2022-08-03T20:30:43.122Z,1.00
2022-08-03T20:33:09.995Z,1.00
2022-08-03T20:35:36.836Z,1.00
2022-08-03T20:38:03.608Z,1.00
2022-08-03T20:40:30.218Z,1.00
2022-08-03T20:42:56.824Z,1.00
2022-08-03T20:46:00.634Z,1.00
2022-08-03T20:48:10.334Z,1.00
2022-08-03T20:50:39.889Z,1.00
2022-08-03T20:53:07.086Z,1.00
2022-08-03T20:55:47.799Z,1.00
2022-08-03T20:58:23.746Z,1.00
2022-08-03T21:00:51.442Z,1.00
2022-08-03T21:03:18.772Z,1.00
2022-08-03T21:05:51.474Z,1.00
2022-08-03T21:08:20.965Z,1.00
2022-08-03T21:10:47.651Z,1.00
2022-08-03T21:13:18.805Z,1.00
2022-08-03T21:16:06.080Z,1.00
2022-08-03T21:18:39.989Z,1.00
2022-08-03T21:21:07.221Z,1.00
2022-08-03T21:23:47.981Z,1.00
2022-08-03T21:26:16.965Z,1.00
2022-08-03T21:28:45.171Z,1.00
2022-08-03T21:31:12.159Z,1.00
2022-08-03T21:33:40.847Z,1.00
2022-08-03T21:36:11.089Z,1.00
2022-08-03T21:38:39.478Z,1.00
2022-08-03T21:41:07.281Z,1.00
2022-08-03T21:43:34.198Z,1.00
2022-08-03T21:46:02.054Z,1.00
2022-08-03T21:48:31.393Z,1.00
2022-08-03T21:50:57.990Z,1.00
2022-08-03T21:54:00.340Z,1.00
2022-08-03T21:56:17.020Z,1.00
2022-08-03T21:58:59.836Z,1.00
2022-08-03T22:01:27.722Z,1.00
2022-08-03T22:04:03.338Z,1.00
2022-08-03T22:06:29.990Z,1.00
2022-08-03T22:08:56.593Z,1.00
2022-08-03T22:11:23.352Z,1.00
2022-08-03T22:13:50.478Z,1.00
2022-08-03T22:16:17.151Z,1.00
2022-08-03T22:18:44.607Z,1.00
2022-08-03T22:21:12.461Z,1.00
2022-08-03T22:23:40.529Z,1.00
2022-08-03T22:26:10.736Z,1.00
2022-08-03T22:28:37.484Z,1.00
2022-08-03T22:31:57.010Z,1.00
2022-08-03T22:33:52.561Z,1.00
2022-08-03T22:36:20.590Z,1.00
2022-08-03T22:38:47.550Z,1.00
2022-08-03T22:41:18.449Z,1.00
2022-08-03T22:43:45.134Z,1.00
2022-08-03T22:46:18.283Z,1.00
2022-08-03T22:48:46.416Z,1.00
2022-08-03T22:51:15.201Z,1.00
2022-08-03T22:53:41.950Z,1.00
2022-08-03T22:56:08.895Z,1.00
2022-08-03T22:58:35.518Z,1.00
2022-08-03T23:01:03.546Z,1.00
2022-08-03T23:03:58.943Z,1.00
2022-08-03T23:06:23.332Z,1.00
2022-08-03T23:08:50.511Z,1.00
2022-08-03T23:11:18.268Z,1.00
2022-08-03T23:13:46.579Z,1.00
2022-08-03T23:16:13.864Z,1.00
2022-08-03T23:18:42.301Z,1.00
2022-08-03T23:21:11.710Z,1.00
2022-08-03T23:23:44.415Z,1.00
2022-08-03T23:26:12.596Z,1.00
2022-08-03T23:28:39.693Z,1.00
2022-08-03T23:31:07.621Z,1.00
2022-08-03T23:33:36.962Z,1.00
2022-08-03T23:36:18.816Z,1.00
2022-08-03T23:38:53.426Z,1.00
2022-08-03T23:41:20.112Z,1.00
2022-08-03T23:43:53.604Z,1.00
2022-08-03T23:46:24.049Z,1.00
2022-08-03T23:48:51.125Z,1.00
2022-08-03T23:51:38.065Z,1.00
2022-08-03T23:54:27.360Z,1.00
2022-08-03T23:56:55.302Z,1.00
2022-08-03T23:59:37.051Z,1.00
